Time;durP1;ratioP1;P1;durP2;ratioP2;P2;SDS_P1;SDS_P2;PMS_P1;PMS_P2;Temp;Humidity;BMP_temperature;BMP_pressure;BME280_temperature;BME280_humidity;BME280_pressure;Samples;Min_cycle;Max_cycle;Signal;HPM_P1;HPM_P2
2023/03/10 00:00:44;;;;;;;;;9.67;7.67;;;;;12.21;77.92;98597.50;5043217;28;46751;-73
2023/03/10 00:03:09;;;;;;;;;8.00;4.00;;;;;12.56;77.23;98653.22;5043071;28;45195;-70
2023/03/10 00:05:38;;;;;;;;;5.00;4.67;;;;;12.44;76.72;98643.22;5041776;28;45483;-71
2023/03/10 00:08:04;;;;;;;;;9.33;6.67;;;;;12.48;76.33;98654.28;5043333;28;45585;-71
2023/03/10 00:10:30;;;;;;;;;8.00;4.00;;;;;12.37;76.27;98645.03;5042641;28;45754;-71
2023/03/10 00:12:55;;;;;;;;;8.67;5.67;;;;;12.50;75.97;98670.88;5042964;28;45332;-72
2023/03/10 00:15:22;;;;;;;;;5.67;5.00;;;;;12.51;75.11;98650.38;5043027;28;45336;-71
2023/03/10 00:17:49;;;;;;;;;8.67;4.33;;;;;12.10;75.11;98595.50;5043351;28;45288;-71
2023/03/10 00:20:15;;;;;;;;;6.33;4.67;;;;;12.16;74.95;98606.13;5042524;28;46095;-72
2023/03/10 00:22:40;;;;;;;;;5.33;3.00;;;;;12.23;75.15;98608.81;5042877;28;45235;-71
2023/03/10 00:25:07;;;;;;;;;9.00;5.00;;;;;12.43;75.55;98630.91;5038952;28;45490;-71
2023/03/10 00:27:33;;;;;;;;;9.00;6.33;;;;;12.58;75.21;98648.50;5039503;28;45455;-71
2023/03/10 00:29:58;;;;;;;;;5.00;3.33;;;;;11.78;75.01;98504.75;5039314;28;46195;-71
2023/03/10 00:32:23;;;;;;;;;9.00;6.67;;;;;11.52;74.98;98468.31;5037933;28;47459;-72
2023/03/10 00:34:49;;;;;;;;;11.67;7.67;;;;;12.34;74.68;98594.84;5038260;28;45385;-71
2023/03/10 00:37:14;;;;;;;;;9.00;6.00;;;;;12.54;74.81;98634.78;5039788;28;45248;-73
2023/03/10 00:39:40;;;;;;;;;7.67;4.00;;;;;12.56;74.78;98621.25;5039168;28;46107;-72
2023/03/10 00:42:06;;;;;;;;;7.00;3.00;;;;;12.34;74.58;98583.34;5038059;28;45280;-72
2023/03/10 00:44:31;;;;;;;;;11.67;7.00;;;;;12.44;74.08;98597.91;5039368;28;45443;-71
2023/03/10 00:46:57;;;;;;;;;8.00;5.00;;;;;12.30;74.02;98561.66;5039238;28;45539;-71
2023/03/10 00:49:22;;;;;;;;;9.33;4.67;;;;;12.53;73.62;98592.34;5038937;28;45732;-72
2023/03/10 00:51:47;;;;;;;;;7.33;6.00;;;;;12.59;73.14;98604.81;5038647;28;53760;-72
2023/03/10 00:54:13;;;;;;;;;7.33;6.33;;;;;12.56;73.38;98618.56;5039097;28;45199;-70
2023/03/10 00:56:38;;;;;;;;;7.00;4.00;;;;;12.38;72.88;98584.56;5039302;28;45483;-71
2023/03/10 00:59:04;;;;;;;;;5.33;1.67;;;;;12.56;72.97;98621.25;5038950;28;46945;-70
2023/03/10 01:01:32;;;;;;;;;7.33;5.67;;;;;12.23;73.55;98565.34;5039173;28;45329;-72
2023/03/10 01:04:00;;;;;;;;;6.00;3.00;;;;;12.37;73.62;98605.06;5037951;28;45581;-71
2023/03/10 01:06:26;;;;;;;;;5.67;4.00;;;;;12.53;73.61;98621.66;5040550;28;45551;-71
2023/03/10 01:08:52;;;;;;;;;3.67;2.00;;;;;12.28;74.11;98590.34;5039261;28;45741;-72
2023/03/10 01:11:20;;;;;;;;;5.00;3.67;;;;;12.48;74.20;98617.78;5038817;28;45284;-72
2023/03/10 01:13:46;;;;;;;;;5.67;4.00;;;;;12.42;73.25;98610.63;5037601;28;45329;-71
2023/03/10 01:16:11;;;;;;;;;6.33;1.33;;;;;12.32;73.42;98602.22;5039260;28;45258;-72
2023/03/10 01:18:37;;;;;;;;;4.00;3.33;;;;;12.28;72.99;98595.66;5038658;28;46032;-71
2023/03/10 01:21:03;;;;;;;;;3.33;1.33;;;;;12.17;72.73;98559.81;5038683;28;45510;-71
2023/03/10 01:23:28;;;;;;;;;5.00;2.67;;;;;12.28;72.56;98563.69;5039090;28;45262;-72
2023/03/10 01:25:54;;;;;;;;;1.33;1.33;;;;;12.17;72.36;98554.47;5038967;28;45368;-72
2023/03/10 01:28:20;;;;;;;;;3.33;1.00;;;;;11.90;72.61;98528.09;5038579;28;47593;-71
2023/03/10 01:30:46;;;;;;;;;3.00;1.67;;;;;12.04;72.16;98573.16;5037298;28;46496;-70
2023/03/10 01:33:12;;;;;;;;;3.33;2.33;;;;;12.14;72.07;98594.03;5038861;28;45171;-70
2023/03/10 01:35:38;;;;;;;;;2.67;2.00;;;;;11.72;72.28;98529.53;5038403;28;45307;-70
2023/03/10 01:38:04;;;;;;;;;2.00;2.00;;;;;12.10;72.11;98600.81;5038279;28;48473;-70
2023/03/10 01:40:30;;;;;;;;;3.00;3.00;;;;;12.08;72.45;98608.19;5038395;28;45247;-71
2023/03/10 01:43:20;;;;;;;;;2.00;2.00;;;;;11.43;71.60;98532.59;5038444;28;45335;-71
2023/03/10 01:45:46;;;;;;;;;3.33;1.00;;;;;12.02;71.79;98593.03;5038222;28;45263;-72
2023/03/10 01:48:16;;;;;;;;;5.00;2.00;;;;;11.96;71.19;98585.84;5038102;28;46577;-72
2023/03/10 01:50:44;;;;;;;;;3.00;1.00;;;;;11.88;71.49;98582.38;5038148;28;45363;-70
2023/03/10 01:53:11;;;;;;;;;4.00;4.00;;;;;10.75;71.11;98412.22;5038120;28;45377;-70
2023/03/10 01:55:42;;;;;;;;;5.00;3.00;;;;;11.74;71.19;98572.72;5036904;28;45327;-70
2023/03/10 01:58:09;;;;;;;;;5.33;2.33;;;;;11.61;70.71;98559.38;5037851;28;46400;-71
2023/03/10 02:00:35;;;;;;;;;2.67;2.00;;;;;11.78;71.25;98566.00;5037981;28;45460;-71
2023/03/10 02:03:14;;;;;;;;;1.67;0.33;;;;;11.81;70.47;98573.59;5038020;28;45282;-71
2023/03/10 02:05:45;;;;;;;;;1.67;1.00;;;;;11.33;70.35;98487.75;5038131;28;45450;-70
2023/03/10 02:08:11;;;;;;;;;1.33;1.00;;;;;11.80;70.71;98555.94;5037921;28;45667;-71
2023/03/10 02:10:38;;;;;;;;;5.67;1.00;;;;;11.82;70.63;98540.63;5036697;28;45391;-71
2023/03/10 02:13:03;;;;;;;;;4.33;3.33;;;;;10.89;70.16;98387.28;5038133;28;45401;-72
2023/03/10 02:15:31;;;;;;;;;6.00;5.00;;;;;11.71;69.93;98519.06;5038038;28;45622;-71
2023/03/10 02:17:57;;;;;;;;;1.67;1.67;;;;;11.36;70.81;98462.56;5037861;28;46030;-71
2023/03/10 02:20:29;;;;;;;;;3.33;2.67;;;;;11.82;70.63;98543.28;5037582;28;45515;-71
2023/03/10 02:22:55;;;;;;;;;6.67;3.00;;;;;11.76;70.20;98528.06;5037790;28;45499;-71
2023/03/10 02:25:32;;;;;;;;;4.33;3.00;;;;;11.81;70.01;98517.69;5037784;28;45186;-71
2023/03/10 02:27:58;;;;;;;;;5.33;5.33;;;;;11.85;69.33;98518.09;5035977;28;47417;-71
2023/03/10 02:30:34;;;;;;;;;9.33;4.67;;;;;11.76;69.62;98508.63;5037497;28;45307;-71
2023/03/10 02:33:20;;;;;;;;;6.00;4.00;;;;;11.64;69.65;98489.81;5036222;28;45366;-71
2023/03/10 02:35:45;;;;;;;;;5.00;4.00;;;;;11.91;68.97;98529.75;5037682;28;45317;-71
2023/03/10 02:38:11;;;;;;;;;6.00;4.00;;;;;11.88;68.75;98513.16;5037356;28;45655;-70
2023/03/10 02:40:41;;;;;;;;;6.67;4.33;;;;;11.77;69.29;98505.75;5037407;28;45349;-71
2023/03/10 02:43:17;;;;;;;;;6.00;3.00;;;;;11.95;68.83;98510.47;5037577;28;45428;-70
2023/03/10 02:45:45;;;;;;;;;3.67;1.00;;;;;11.84;68.36;98495.97;5037317;28;45410;-72
2023/03/10 02:48:13;;;;;;;;;2.00;1.67;;;;;11.11;67.80;98407.34;5037082;28;45887;-71
2023/03/10 02:50:41;;;;;;;;;3.67;3.00;;;;;11.87;67.65;98503.53;5038430;28;45319;-71
2023/03/10 02:53:16;;;;;;;;;4.00;3.00;;;;;11.83;68.10;98496.19;5037766;28;45458;-71
2023/03/10 02:55:42;;;;;;;;;6.00;3.00;;;;;11.88;67.76;98499.84;5037713;28;45270;-72
2023/03/10 02:58:08;;;;;;;;;3.33;3.00;;;;;11.80;67.23;98497.38;5037268;28;45391;-71
2023/03/10 03:00:38;;;;;;;;;5.00;1.67;;;;;11.85;67.58;98500.25;5035649;28;45562;-71
2023/03/10 03:03:04;;;;;;;;;3.33;1.00;;;;;11.14;67.27;98382.19;5035992;28;45478;-71
2023/03/10 03:05:29;;;;;;;;;2.67;1.00;;;;;11.85;67.26;98505.59;5038184;28;45599;-71
2023/03/10 03:07:55;;;;;;;;;3.67;1.00;;;;;11.08;67.45;98381.16;5035943;28;48097;-71
2023/03/10 03:10:21;;;;;;;;;4.67;1.00;;;;;11.76;67.37;98504.13;5037571;28;45609;-70
2023/03/10 03:12:49;;;;;;;;;5.33;1.67;;;;;11.70;67.42;98496.16;5037364;28;45425;-70
2023/03/10 03:15:14;;;;;;;;;0.00;0.00;;;;;11.73;67.79;98493.88;5037276;28;46299;-72
2023/03/10 03:17:40;;;;;;;;;1.75;0.00;;;;;11.77;67.45;98492.44;5036677;28;46660;-72
2023/03/10 03:20:12;;;;;;;;;4.00;1.00;;;;;11.78;67.64;98487.94;5035336;28;55914;-71
2023/03/10 03:22:37;;;;;;;;;0.00;0.00;;;;;11.67;67.59;98475.28;5037224;28;45267;-73
2023/03/10 03:25:03;;;;;;;;;1.33;1.00;;;;;11.72;68.43;98494.09;5037136;28;45374;-70
2023/03/10 03:27:29;;;;;;;;;3.33;2.00;;;;;10.85;68.28;98343.53;5052201;28;48917;-71
2023/03/10 03:29:55;;;;;;;;;6.33;2.00;;;;;11.69;68.57;98486.53;5036669;28;45363;-71
2023/03/10 03:32:20;;;;;;;;;2.00;1.00;;;;;11.71;69.53;98492.47;5037043;28;45302;-71
2023/03/10 03:34:46;;;;;;;;;2.67;1.00;;;;;11.65;70.03;98501.28;5037113;28;45260;-71
2023/03/10 03:37:11;;;;;;;;;3.33;2.00;;;;;11.57;70.17;98496.97;5036854;28;46196;-70
2023/03/10 03:39:36;;;;;;;;;5.00;3.00;;;;;10.77;70.78;98362.31;5036829;28;45545;-72
2023/03/10 03:42:02;;;;;;;;;7.33;4.67;;;;;11.55;70.71;98497.16;5036092;28;56388;-70
2023/03/10 03:44:27;;;;;;;;;3.33;2.67;;;;;11.57;70.94;98491.63;5052180;28;45450;-70
2023/03/10 03:46:52;;;;;;;;;1.67;1.67;;;;;10.82;70.87;98391.78;5036561;28;45986;-70
2023/03/10 03:49:18;;;;;;;;;5.67;2.67;;;;;11.58;71.55;98506.56;5052039;28;46021;-70
2023/03/10 03:51:43;;;;;;;;;4.67;3.00;;;;;11.52;71.17;98488.78;5036595;28;45460;-71
2023/03/10 03:54:08;;;;;;;;;8.00;4.00;;;;;11.39;71.70;98491.44;5036881;28;45243;-71
2023/03/10 03:56:33;;;;;;;;;3.67;3.00;;;;;11.58;72.07;98498.59;5035963;28;60024;-71
2023/03/10 03:58:59;;;;;;;;;4.33;3.00;;;;;11.64;72.12;98507.63;5037313;28;45543;-71
2023/03/10 04:01:24;;;;;;;;;4.00;2.00;;;;;11.34;71.95;98475.28;5038886;28;45331;-71
2023/03/10 04:03:50;;;;;;;;;4.67;3.00;;;;;11.59;72.17;98505.56;5040236;28;45404;-71
2023/03/10 04:06:15;;;;;;;;;3.00;3.00;;;;;11.25;72.57;98445.41;5039823;28;47301;-71
2023/03/10 04:08:41;;;;;;;;;4.67;3.67;;;;;11.48;72.94;98504.34;5039698;28;45191;-71
2023/03/10 04:11:06;;;;;;;;;4.33;3.67;;;;;11.49;73.45;98491.84;5040096;28;45666;-71
2023/03/10 04:13:31;;;;;;;;;8.67;6.33;;;;;11.42;73.95;98488.38;5038629;28;45533;-71
2023/03/10 04:15:58;;;;;;;;;6.33;5.67;;;;;11.49;73.57;98507.81;5039584;28;46443;-71
2023/03/10 04:18:24;;;;;;;;;9.33;4.00;;;;;11.35;74.75;98476.91;5039664;28;45469;-71
2023/03/10 04:20:49;;;;;;;;;6.33;4.00;;;;;11.49;74.67;98510.47;5039742;28;45356;-71
2023/03/10 04:23:15;;;;;;;;;6.00;3.33;;;;;11.51;75.14;98508.44;5039969;28;45513;-72
2023/03/10 04:25:42;;;;;;;;;4.67;4.00;;;;;11.61;75.05;98511.50;5039641;28;46701;-71
2023/03/10 04:28:08;;;;;;;;;7.67;4.00;;;;;11.50;74.99;98474.88;5039634;28;45341;-71
2023/03/10 04:30:33;;;;;;;;;4.67;2.00;;;;;11.58;75.25;98509.25;5040443;28;45496;-70
2023/03/10 04:32:59;;;;;;;;;6.33;3.00;;;;;11.58;75.08;98502.06;5040268;28;45435;-71
2023/03/10 04:35:26;;;;;;;;;1.67;1.00;;;;;11.61;75.01;98494.69;5039495;28;45841;-71
2023/03/10 04:37:51;;;;;;;;;5.00;3.33;;;;;11.53;73.57;98479.78;5039664;28;45274;-73
2023/03/10 04:40:17;;;;;;;;;8.00;3.00;;;;;11.22;73.72;98459.13;5039652;28;45316;-72
2023/03/10 04:42:43;;;;;;;;;4.00;3.00;;;;;10.38;72.96;98300.16;5039942;28;45312;-71
2023/03/10 04:45:09;;;;;;;;;4.67;3.00;;;;;11.33;72.50;98458.50;5038883;28;45580;-71
2023/03/10 04:47:34;;;;;;;;;4.67;2.00;;;;;11.20;72.43;98443.34;5039002;28;45454;-71
2023/03/10 04:50:00;;;;;;;;;4.67;3.67;;;;;10.55;72.26;98338.59;5039199;28;45832;-71
2023/03/10 04:52:25;;;;;;;;;0.33;0.33;;;;;11.46;72.04;98481.63;5039409;28;45422;-71
2023/03/10 04:54:50;;;;;;;;;2.00;2.00;;;;;11.47;72.35;98477.94;5039246;28;45576;-70
2023/03/10 04:57:16;;;;;;;;;1.00;0.33;;;;;11.51;71.79;98492.47;5054367;28;45293;-71
2023/03/10 04:59:41;;;;;;;;;2.67;1.67;;;;;11.39;71.59;98483.44;5039094;28;45663;-71
2023/03/10 05:02:06;;;;;;;;;2.33;2.33;;;;;11.51;71.95;98508.44;5039412;28;45435;-70
2023/03/10 05:04:32;;;;;;;;;2.00;1.33;;;;;11.40;71.54;98495.72;5038861;28;46439;-73
2023/03/10 05:06:57;;;;;;;;;2.00;2.00;;;;;11.51;72.01;98513.75;5038822;28;45297;-71
2023/03/10 05:09:23;;;;;;;;;0.33;0.33;;;;;11.15;71.74;98461.75;5039213;28;45411;-70
2023/03/10 05:11:48;;;;;;;;;0.00;0.00;;;;;11.28;71.10;98500.84;5038356;28;45210;-71
2023/03/10 05:14:14;;;;;;;;;1.00;1.00;;;;;11.39;71.62;98502.06;5038575;28;45473;-71
2023/03/10 05:16:39;;;;;;;;;2.33;0.33;;;;;10.90;71.42;98450.06;5038675;28;45195;-71
2023/03/10 05:19:05;;;;;;;;;3.00;2.00;;;;;11.35;71.23;98514.16;5038650;28;45290;-70
2023/03/10 05:21:30;;;;;;;;;2.33;2.00;;;;;11.24;71.17;98535.03;5038849;28;45229;-70
2023/03/10 05:23:55;;;;;;;;;0.67;0.67;;;;;10.39;72.13;98365.53;5038516;28;45366;-71
2023/03/10 05:26:21;;;;;;;;;1.00;1.00;;;;;11.25;72.17;98522.53;5038497;28;45209;-71
2023/03/10 05:28:46;;;;;;;;;1.00;1.00;;;;;11.27;71.45;98534.63;5038622;28;45241;-72
2023/03/10 05:31:14;;;;;;;;;0.33;0.00;;;;;11.19;71.50;98512.69;5038804;28;45218;-71
2023/03/10 05:33:40;;;;;;;;;2.67;0.00;;;;;11.22;72.25;98522.94;5037113;28;46477;-72
2023/03/10 05:36:11;;;;;;;;;1.00;1.00;;;;;10.99;71.89;98486.06;5038428;28;45475;-71
2023/03/10 05:38:37;;;;;;;;;0.00;0.00;;;;;11.22;71.97;98517.63;5036851;28;45395;-71
2023/03/10 05:41:08;;;;;;;;;0.67;0.00;;;;;10.98;72.58;98497.72;5038671;28;45279;-70
2023/03/10 05:43:34;;;;;;;;;0.67;0.00;;;;;11.16;72.85;98527.22;5036712;28;47754;-71
2023/03/10 05:46:00;;;;;;;;;0.00;0.00;;;;;11.03;72.67;98516.56;5038441;28;45304;-73
2023/03/10 05:48:26;;;;;;;;;0.00;0.00;;;;;11.06;73.28;98526.78;5038563;28;45213;-72
2023/03/10 05:51:03;;;;;;;;;0.00;0.00;;;;;10.29;73.81;98412.91;5038403;28;45586;-71
2023/03/10 05:53:30;;;;;;;;;0.67;0.33;;;;;10.22;74.08;98412.09;5037888;28;45759;-70
2023/03/10 05:55:56;;;;;;;;;3.00;2.00;;;;;10.93;73.93;98521.44;5037559;28;45313;-70
2023/03/10 05:58:22;;;;;;;;;0.00;0.00;;;;;10.89;74.10;98533.50;5038254;28;45450;-72
2023/03/10 06:00:48;;;;;;;;;0.00;0.00;;;;;10.85;74.12;98524.28;5038175;28;45575;-71
2023/03/10 06:03:13;;;;;;;;;2.00;0.33;;;;;10.69;74.15;98487.44;5038278;28;45528;-76
2023/03/10 06:05:39;;;;;;;;;1.00;0.00;;;;;10.18;73.96;98408.94;5033403;28;46373;-71
2023/03/10 06:08:04;;;;;;;;;0.00;0.00;;;;;10.80;73.72;98522.19;5043678;28;45522;-71
2023/03/10 06:10:30;;;;;;;;;0.00;0.00;;;;;10.30;73.57;98452.56;5017824;28;45556;-71
2023/03/10 06:12:55;;;;;;;;;0.33;0.00;;;;;10.88;74.45;98537.19;5029113;28;45269;-71
2023/03/10 06:15:20;;;;;;;;;0.00;0.00;;;;;10.25;73.97;98444.38;5038193;28;45218;-70
2023/03/10 06:17:46;;;;;;;;;0.00;0.00;;;;;10.96;74.10;98547.63;5036352;28;45764;-71
2023/03/10 06:20:12;;;;;;;;;0.67;0.00;;;;;10.85;74.45;98535.75;5037860;28;45531;-71
2023/03/10 06:22:37;;;;;;;;;0.00;0.00;;;;;10.96;74.80;98552.94;5038276;28;46729;-72
2023/03/10 06:25:03;;;;;;;;;0.00;0.00;;;;;10.34;73.88;98460.94;5037502;28;45446;-72
2023/03/10 06:27:30;;;;;;;;;0.00;0.00;;;;;10.83;74.56;98543.09;5036370;28;45324;-71
2023/03/10 06:29:55;;;;;;;;;1.00;0.00;;;;;10.89;74.53;98557.41;5038098;28;45328;-71
2023/03/10 06:32:21;;;;;;;;;1.00;0.00;;;;;10.81;74.81;98569.06;5040279;28;45423;-71
2023/03/10 06:34:46;;;;;;;;;0.00;0.00;;;;;10.65;75.11;98554.28;5037300;28;45480;-72
2023/03/10 06:37:12;;;;;;;;;0.00;0.00;;;;;10.14;76.01;98466.13;5037460;28;45430;-72
2023/03/10 06:39:38;;;;;;;;;0.00;0.00;;;;;10.21;76.07;98488.28;5037453;28;45339;-71
2023/03/10 06:42:04;;;;;;;;;1.00;0.00;;;;;10.75;76.46;98582.31;5031785;28;45568;-72
2023/03/10 06:44:29;;;;;;;;;0.00;0.00;;;;;10.74;76.39;98588.63;5035063;28;45266;-70
2023/03/10 06:46:55;;;;;;;;;0.00;0.00;;;;;10.81;76.05;98592.13;5035003;28;45578;-71
2023/03/10 06:49:20;;;;;;;;;1.67;1.00;;;;;10.79;76.39;98587.00;5029171;28;45279;-72
2023/03/10 06:51:46;;;;;;;;;0.00;0.00;;;;;10.85;76.06;98598.72;5017172;28;45289;-71
2023/03/10 06:54:11;;;;;;;;;2.00;0.00;;;;;10.06;75.11;98469.78;5017367;28;45610;-72
2023/03/10 06:56:36;;;;;;;;;0.33;0.00;;;;;10.90;75.39;98612.22;5031628;28;45554;-73
2023/03/10 06:59:02;;;;;;;;;1.50;0.00;;;;;10.90;75.84;98609.56;5038194;28;45303;-73
2023/03/10 07:01:32;;;;;;;;;0.00;0.00;;;;;10.89;75.96;98615.91;5037005;28;45751;-72
2023/03/10 07:03:59;;;;;;;;;0.00;0.00;;;;;10.60;75.68;98588.56;5036658;28;45261;-72
2023/03/10 07:06:25;;;;;;;;;0.00;0.00;;;;;10.57;75.41;98559.72;5035845;28;45285;-71
2023/03/10 07:08:52;;;;;;;;;0.00;0.00;;;;;10.80;75.62;98614.41;5036986;28;45237;-72
2023/03/10 07:11:17;;;;;;;;;0.00;0.00;;;;;11.06;76.25;98645.63;5052085;28;46366;-72
2023/03/10 07:13:43;;;;;;;;;0.00;0.00;;;;;11.02;75.75;98647.06;5056716;28;45224;-72
2023/03/10 07:16:08;;;;;;;;;0.00;0.00;;;;;11.12;75.87;98669.59;5056835;28;45545;-71
2023/03/10 07:18:33;;;;;;;;;1.00;1.00;;;;;11.17;75.95;98693.75;5056875;28;45379;-71
2023/03/10 07:20:59;;;;;;;;;0.00;0.00;;;;;11.16;76.25;98684.13;5041668;28;45507;-76
2023/03/10 07:23:25;;;;;;;;;0.00;0.00;;;;;11.23;75.87;98684.19;5034106;28;45301;-74
2023/03/10 07:25:52;;;;;;;;;0.00;0.00;;;;;11.21;75.63;98683.53;5032495;28;45491;-75
2023/03/10 07:28:17;;;;;;;;;2.00;2.00;;;;;11.26;75.89;98675.78;5017903;28;45611;-75
2023/03/10 07:30:43;;;;;;;;;0.00;0.00;;;;;11.22;76.15;98688.69;5016489;28;46645;-76
2023/03/10 07:33:08;;;;;;;;;0.00;0.00;;;;;10.51;75.89;98573.81;5028959;28;45440;-74
2023/03/10 07:35:35;;;;;;;;;1.00;0.00;;;;;11.04;75.81;98667.13;5023287;28;45463;-75
2023/03/10 07:38:00;;;;;;;;;0.00;0.00;;;;;11.30;75.25;98702.81;5036219;28;45301;-75
2023/03/10 07:40:25;;;;;;;;;0.00;0.00;;;;;11.27;74.35;98701.38;5026480;28;47719;-74
2023/03/10 07:42:53;;;;;;;;;1.00;1.00;;;;;11.44;74.48;98733.78;5039757;28;45431;-74
2023/03/10 07:45:19;;;;;;;;;0.00;0.00;;;;;11.23;74.86;98706.28;5039721;28;45506;-73
2023/03/10 07:47:44;;;;;;;;;4.00;4.00;;;;;10.27;74.34;98567.16;5038961;28;45555;-76
2023/03/10 07:50:10;;;;;;;;;1.00;1.00;;;;;11.41;73.82;98747.47;5047431;28;47207;-74
2023/03/10 07:52:35;;;;;;;;;0.00;0.00;;;;;11.42;73.33;98802.34;5038748;28;46120;-75
2023/03/10 07:55:01;;;;;;;;;2.00;0.00;;;;;11.44;73.67;98797.66;5029298;28;45286;-75
2023/03/10 07:57:27;;;;;;;;;0.67;0.67;;;;;11.45;72.02;98807.25;5020399;28;45372;-75
2023/03/10 07:59:52;;;;;;;;;0.00;0.00;;;;;11.38;71.15;98801.88;5027424;28;46192;-74
2023/03/10 08:02:18;;;;;;;;;0.00;0.00;;;;;11.32;71.19;98810.66;5023989;28;45438;-76
2023/03/10 08:04:43;;;;;;;;;0.00;0.00;;;;;11.12;69.58;98783.13;5044194;28;45597;-75
2023/03/10 08:07:09;;;;;;;;;0.00;0.00;;;;;10.78;69.23;98736.06;5031249;28;45687;-75
2023/03/10 08:09:35;;;;;;;;;0.00;0.00;;;;;11.34;69.03;98821.94;5046876;28;46418;-74
2023/03/10 08:12:02;;;;;;;;;0.00;0.00;;;;;11.46;69.11;98851.47;5039358;28;45519;-75
2023/03/10 08:14:29;;;;;;;;;0.00;0.00;;;;;11.40;68.74;98828.28;5034915;28;45567;-76
2023/03/10 08:16:57;;;;;;;;;0.00;0.00;;;;;11.23;68.55;98788.72;5039543;28;45560;-74
2023/03/10 08:19:24;;;;;;;;;0.00;0.00;;;;;11.34;67.21;98858.34;5037484;28;47955;-75
2023/03/10 08:21:50;;;;;;;;;0.00;0.00;;;;;11.58;66.95;98887.97;5039168;28;45222;-76
2023/03/10 08:24:16;;;;;;;;;0.00;0.00;;;;;11.62;67.23;98883.09;5028860;28;45370;-77
2023/03/10 08:26:41;;;;;;;;;1.00;0.00;;;;;11.72;67.10;98902.19;5033158;28;45575;-76
2023/03/10 08:29:07;;;;;;;;;0.67;0.67;;;;;11.76;67.17;98906.09;5039264;28;47300;-76
2023/03/10 08:31:32;;;;;;;;;0.67;0.00;;;;;11.58;68.22;98881.84;5039508;28;45492;-77
2023/03/10 08:33:57;;;;;;;;;1.00;0.67;;;;;11.69;67.86;98905.25;5055015;28;45478;-76
2023/03/10 08:36:27;;;;;;;;;0.00;0.00;;;;;10.88;67.48;98773.78;5022879;28;45495;-75
2023/03/10 08:38:54;;;;;;;;;0.00;0.00;;;;;11.83;67.30;98946.94;5038767;28;45559;-77
2023/03/10 08:41:19;;;;;;;;;0.00;0.00;;;;;11.82;67.62;98957.81;5039123;28;45517;-76
2023/03/10 08:43:46;;;;;;;;;1.00;1.00;;;;;11.26;66.69;98909.88;5044520;28;45460;-77
2023/03/10 08:46:11;;;;;;;;;0.00;0.00;;;;;11.43;66.82;98923.72;5035800;28;45297;-75
2023/03/10 08:48:37;;;;;;;;;3.00;2.00;;;;;11.72;66.51;98986.56;5022357;28;46302;-77
2023/03/10 08:51:04;;;;;;;;;0.33;0.33;;;;;11.78;66.44;98973.31;5038569;28;45479;-76
2023/03/10 08:53:31;;;;;;;;;2.00;1.00;;;;;11.87;66.36;99009.44;5037335;28;45411;-75
2023/03/10 08:55:57;;;;;;;;;2.00;1.00;;;;;11.70;65.48;98962.81;5047398;28;45459;-74
2023/03/10 08:58:23;;;;;;;;;0.00;0.00;;;;;11.92;65.14;99010.69;5040231;28;45851;-74
2023/03/10 09:00:49;;;;;;;;;2.00;2.00;;;;;11.90;65.16;99007.41;5020253;28;45602;-75
2023/03/10 09:03:14;;;;;;;;;0.00;0.00;;;;;11.92;64.52;99010.69;5021431;28;45246;-76
2023/03/10 09:05:40;;;;;;;;;1.00;0.00;;;;;11.48;64.10;98940.75;5051174;28;46280;-74
2023/03/10 09:08:06;;;;;;;;;1.00;0.00;;;;;11.32;64.03;98948.19;5022879;28;46025;-76
2023/03/10 09:10:33;;;;;;;;;2.00;1.00;;;;;10.31;64.28;98809.25;5038774;28;45423;-75
2023/03/10 09:12:59;;;;;;;;;1.33;0.00;;;;;11.68;63.62;99036.72;5032523;28;45329;-74
2023/03/10 09:15:24;;;;;;;;;0.00;0.00;;;;;11.64;63.95;99029.31;5018714;28;45247;-74
2023/03/10 09:17:49;;;;;;;;;4.00;1.00;;;;;11.56;63.33;99014.28;5027451;28;46300;-76
2023/03/10 09:20:15;;;;;;;;;2.00;2.00;;;;;11.56;63.65;99046.22;5022123;28;45406;-75
2023/03/10 09:22:41;;;;;;;;;1.33;1.00;;;;;11.41;64.11;99034.81;5052049;28;45520;-75
2023/03/10 09:25:08;;;;;;;;;2.00;1.00;;;;;11.64;63.28;99078.03;5040429;28;45434;-76
2023/03/10 09:27:34;;;;;;;;;1.00;1.00;;;;;11.20;63.12;99015.19;5028798;28;46580;-77
2023/03/10 09:29:59;;;;;;;;;0.00;0.00;;;;;11.36;63.75;99042.56;5037789;28;45431;-74
2023/03/10 09:32:25;;;;;;;;;1.33;1.33;;;;;11.26;63.71;99033.06;5038517;28;45447;-76
2023/03/10 09:34:50;;;;;;;;;2.00;1.00;;;;;11.68;63.33;99131.72;5037162;28;45775;-74
2023/03/10 09:37:15;;;;;;;;;2.67;0.67;;;;;10.81;63.36;99028.91;5037849;28;45399;-75
2023/03/10 09:39:41;;;;;;;;;0.67;0.67;;;;;11.57;62.51;99135.69;5030997;28;45361;-74
2023/03/10 09:42:25;;;;;;;;;1.00;1.00;;;;;11.45;63.10;99151.34;5027834;28;45513;-77
2023/03/10 09:45:00;;;;;;;;;1.00;0.67;;;;;11.56;63.02;99158.00;5034790;28;46043;-75
2023/03/10 09:47:37;;;;;;;;;1.33;1.00;;;;;11.57;62.14;99173.78;5030432;28;45673;-74
2023/03/10 09:50:24;;;;;;;;;3.00;1.00;;;;;11.56;61.26;99171.31;5036567;28;46025;-71
2023/03/10 09:53:19;;;;;;;;;3.33;1.00;;;;;11.11;60.87;99098.78;5038213;28;45690;-74
2023/03/10 09:55:44;;;;;;;;;1.00;1.00;;;;;11.47;60.28;99180.44;5057084;28;45516;-74
2023/03/10 09:58:27;;;;;;;;;2.00;1.00;;;;;11.27;60.25;99170.41;5040355;28;46046;-73
2023/03/10 10:00:53;;;;;;;;;1.67;1.00;;;;;11.42;59.87;99204.13;5045568;28;45381;-71
2023/03/10 10:03:27;;;;;;;;;0.00;0.00;;;;;10.80;60.52;99114.16;5037623;28;45965;-73
2023/03/10 10:05:54;;;;;;;;;1.00;1.00;;;;;11.31;59.56;99193.97;5045782;28;45406;-74
2023/03/10 10:08:27;;;;;;;;;1.00;1.00;;;;;11.51;58.67;99243.75;5037929;28;46487;-73
2023/03/10 10:10:58;;;;;;;;;0.00;0.00;;;;;11.35;59.38;99216.50;5037981;28;45449;-73
2023/03/10 10:13:26;;;;;;;;;1.00;1.00;;;;;11.15;58.50;99209.09;5037864;28;45523;-75
2023/03/10 10:16:17;;;;;;;;;2.00;2.00;;;;;11.49;58.04;99269.72;5027397;28;45326;-75
2023/03/10 10:18:55;;;;;;;;;2.00;2.00;;;;;10.74;57.35;99142.31;5024495;28;46407;-73
2023/03/10 10:21:27;;;;;;;;;3.67;1.00;;;;;11.52;57.09;99276.50;5037443;28;45419;-73
2023/03/10 10:23:53;;;;;;;;;6.00;2.00;;;;;11.53;56.88;99294.94;5037155;28;46331;-75
2023/03/10 10:26:22;;;;;;;;;2.67;1.33;;;;;11.55;57.20;99310.72;5036249;28;45561;-72
2023/03/10 10:29:10;;;;;;;;;3.00;1.67;;;;;11.62;57.55;99309.00;5036316;28;47382;-74
2023/03/10 10:31:35;;;;;;;;;2.00;2.00;;;;;11.48;57.09;99320.47;5037608;28;45422;-72
2023/03/10 10:34:21;;;;;;;;;4.00;3.00;;;;;11.36;56.95;99308.63;5037804;28;45491;-73
2023/03/10 10:36:50;;;;;;;;;1.00;1.00;;;;;11.17;56.35;99283.41;5039167;28;45309;-73
2023/03/10 10:39:26;;;;;;;;;2.33;2.00;;;;;11.32;55.37;99308.19;5032596;28;46779;-74
2023/03/10 10:41:52;;;;;;;;;2.00;1.00;;;;;11.34;55.16;99354.06;5026688;28;45370;-73
2023/03/10 10:44:18;;;;;;;;;3.00;3.00;;;;;10.96;53.60;99281.47;5035864;28;45530;-74
2023/03/10 10:46:56;;;;;;;;;2.00;2.00;;;;;11.42;53.15;99363.78;5035832;28;45571;-73
2023/03/10 10:49:26;;;;;;;;;1.00;1.00;;;;;11.30;53.02;99330.66;5036599;28;46420;-76
2023/03/10 10:52:16;;;;;;;;;0.67;0.67;;;;;11.68;52.37;99363.31;5037565;28;45236;-74
2023/03/10 10:54:43;;;;;;;;;1.00;1.00;;;;;11.62;50.99;99340.94;5049901;28;45537;-78
2023/03/10 10:57:35;;;;;;;;;3.67;1.33;;;;;11.75;50.03;99380.22;5037861;28;45459;-76
2023/03/10 11:00:26;;;;;;;;;3.00;1.33;;;;;11.72;49.89;99393.88;5036883;28;46209;-75
2023/03/10 11:02:52;;;;;;;;;6.67;4.00;;;;;11.73;49.90;99409.69;5038244;28;45253;-79
2023/03/10 11:05:22;;;;;;;;;2.33;1.67;;;;;11.44;50.13;99364.44;5027254;28;45481;-74
2023/03/10 11:07:49;;;;;;;;;3.00;3.00;;;;;10.99;49.67;99281.09;5032422;28;45462;-75
2023/03/10 11:10:24;;;;;;;;;0.67;0.67;;;;;11.74;50.43;99429.13;5036831;28;45516;-73
2023/03/10 11:13:11;;;;;;;;;2.67;1.00;;;;;11.65;51.81;99423.09;5037201;28;45579;-73
2023/03/10 11:15:41;;;;;;;;;2.00;2.00;;;;;11.70;51.84;99420.69;5036532;28;45559;-73
2023/03/10 11:18:13;;;;;;;;;6.33;3.00;;;;;11.72;51.22;99437.31;5036717;28;45459;-73
2023/03/10 11:20:58;;;;;;;;;2.67;2.67;;;;;11.79;51.97;99434.75;5020018;28;46322;-73
2023/03/10 11:23:28;;;;;;;;;4.33;2.00;;;;;11.72;51.64;99429.31;5036698;28;45630;-73
2023/03/10 11:26:05;;;;;;;;;3.33;2.00;;;;;11.87;51.18;99450.66;5036984;28;45510;-73
2023/03/10 11:28:45;;;;;;;;;2.33;1.00;;;;;11.05;49.35;99312.31;5036712;28;45420;-74
2023/03/10 11:31:14;;;;;;;;;3.00;3.00;;;;;11.91;49.19;99441.28;5036705;28;46181;-73
2023/03/10 11:33:57;;;;;;;;;3.67;3.67;;;;;11.99;49.22;99453.69;5031146;28;45475;-73
2023/03/10 11:36:49;;;;;;;;;9.00;6.00;;;;;12.08;48.75;99468.56;5037108;28;45413;-73